sensor_id;sensor_type;location;lat;lon;timestamp;pressure;altitude;pressure_sealevel;temperature;humidity
30343;BME280;17145;49.902;8.680;'2023-02-28 00:58:56';101160;;;0;38
30343;BME280;17145;49.902;8.680;'2023-02-28 01:01:26';101160;;;0;38
30343;BME280;17145;49.902;8.680;'2023-02-28 01:03:54';101160;;;0;38
30343;BME280;17145;49.902;8.680;'2023-02-28 01:06:22';101160;;;0;38
30343;BME280;17145;49.902;8.680;'2023-02-28 01:08:51';101160;;;0;38
30343;BME280;17145;49.902;8.680;'2023-02-28 01:11:18';101160;;;0;38
30343;BME280;17145;49.902;8.680;'2023-02-28 01:13:47';101160;;;0;38
30343;BME280;17145;49.902;8.680;'2023-02-28 01:16:17';101160;;;0;38
30343;BME280;17145;49.902;8.680;'2023-02-28 01:18:45';101160;;;0;39
30343;BME280;17145;49.902;8.680;'2023-02-28 01:21:14';101160;;;0;39
30343;BME280;17145;49.902;8.680;'2023-02-28 01:23:42';101160;;;0;39
30343;BME280;17145;49.902;8.680;'2023-02-28 01:26:10';101160;;;0;39
30343;BME280;17145;49.902;8.680;'2023-02-28 01:28:39';101160;;;0;39
30343;BME280;17145;49.902;8.680;'2023-02-28 01:31:06';101160;;;0;39
30343;BME280;17145;49.902;8.680;'2023-02-28 01:33:34';101160;;;0;39
30343;BME280;17145;49.902;8.680;'2023-02-28 01:36:06';101160;;;0;39
30343;BME280;17145;49.902;8.680;'2023-02-28 01:38:34';101160;;;0;39
30343;BME280;17145;49.902;8.680;'2023-02-28 01:41:02';101160;;;0;39
30343;BME280;17145;49.902;8.680;'2023-02-28 01:43:30';101160;;;0;39
30343;BME280;17145;49.902;8.680;'2023-02-28 01:45:58';101160;;;0;39
30343;BME280;17145;49.902;8.680;'2023-02-28 01:48:27';101160;;;0;39
30343;BME280;17145;49.902;8.680;'2023-02-28 01:50:54';101160;;;0;39
30343;BME280;17145;49.902;8.680;'2023-02-28 01:53:23';101170;;;0;39
30343;BME280;17145;49.902;8.680;'2023-02-28 01:55:51';101170;;;0;39
30343;BME280;17145;49.902;8.680;'2023-02-28 01:58:19';101170;;;0;39
30343;BME280;17145;49.902;8.680;'2023-02-28 02:00:47';101170;;;0;39
30343;BME280;17145;49.902;8.680;'2023-02-28 02:03:14';101160;;;0;39
30343;BME280;17145;49.902;8.680;'2023-02-28 02:05:42';101160;;;0;39
30343;BME280;17145;49.902;8.680;'2023-02-28 02:08:10';101170;;;0;39
30343;BME280;17145;49.902;8.680;'2023-02-28 02:10:38';101170;;;0;39
30343;BME280;17145;49.902;8.680;'2023-02-28 02:13:07';101160;;;0;39
30343;BME280;17145;49.902;8.680;'2023-02-28 02:15:35';101160;;;0;39
30343;BME280;17145;49.902;8.680;'2023-02-28 02:18:02';101160;;;0;39
30343;BME280;17145;49.902;8.680;'2023-02-28 02:20:32';101160;;;0;39
30343;BME280;17145;49.902;8.680;'2023-02-28 02:22:59';101160;;;0;39
30343;BME280;17145;49.902;8.680;'2023-02-28 02:25:27';101160;;;0;39
30343;BME280;17145;49.902;8.680;'2023-02-28 02:27:54';101150;;;0;40
30343;BME280;17145;49.902;8.680;'2023-02-28 02:30:22';101150;;;0;40
30343;BME280;17145;49.902;8.680;'2023-02-28 02:32:50';101150;;;0;40
30343;BME280;17145;49.902;8.680;'2023-02-28 02:35:17';101150;;;0;40
30343;BME280;17145;49.902;8.680;'2023-02-28 02:37:45';101150;;;0;40
30343;BME280;17145;49.902;8.680;'2023-02-28 02:40:14';101150;;;0;40
30343;BME280;17145;49.902;8.680;'2023-02-28 02:42:42';101150;;;0;40
30343;BME280;17145;49.902;8.680;'2023-02-28 02:45:21';101150;;;0;40
30343;BME280;17145;49.902;8.680;'2023-02-28 02:47:52';101150;;;0;40
30343;BME280;17145;49.902;8.680;'2023-02-28 02:50:23';101140;;;0;40
30343;BME280;17145;49.902;8.680;'2023-02-28 02:52:55';101140;;;0;40
30343;BME280;17145;49.902;8.680;'2023-02-28 02:55:26';101140;;;0;40
30343;BME280;17145;49.902;8.680;'2023-02-28 02:57:58';101140;;;0;40
30343;BME280;17145;49.902;8.680;'2023-02-28 03:00:27';101140;;;0;41
30343;BME280;17145;49.902;8.680;'2023-02-28 03:03:00';101140;;;0;41
30343;BME280;17145;49.902;8.680;'2023-02-28 03:05:30';101140;;;0;41
30343;BME280;17145;49.902;8.680;'2023-02-28 03:08:03';101140;;;0;41
30343;BME280;17145;49.902;8.680;'2023-02-28 03:13:19';101130;;;0;41
30343;BME280;17145;49.902;8.680;'2023-02-28 03:15:58';101130;;;0;41
30343;BME280;17145;49.902;8.680;'2023-02-28 03:21:22';101120;;;0;41
30343;BME280;17145;49.902;8.680;'2023-02-28 03:24:10';101120;;;0;41
30343;BME280;17145;49.902;8.680;'2023-02-28 03:27:00';101120;;;0;41
30343;BME280;17145;49.902;8.680;'2023-02-28 03:29:48';101120;;;0;42
30343;BME280;17145;49.902;8.680;'2023-02-28 03:32:33';101120;;;0;42
30343;BME280;17145;49.902;8.680;'2023-02-28 03:35:12';101120;;;0;42
30343;BME280;17145;49.902;8.680;'2023-02-28 03:37:46';101120;;;0;42
30343;BME280;17145;49.902;8.680;'2023-02-28 03:40:18';101120;;;0;42
30343;BME280;17145;49.902;8.680;'2023-02-28 03:42:50';101110;;;0;42
30343;BME280;17145;49.902;8.680;'2023-02-28 03:45:25';101120;;;0;42
30343;BME280;17145;49.902;8.680;'2023-02-28 03:47:56';101110;;;0;42
30343;BME280;17145;49.902;8.680;'2023-02-28 03:50:31';101110;;;0;42
30343;BME280;17145;49.902;8.680;'2023-02-28 03:53:03';101110;;;0;42
30343;BME280;17145;49.902;8.680;'2023-02-28 03:55:34';101120;;;0;41
30343;BME280;17145;49.902;8.680;'2023-02-28 03:58:06';101120;;;0;41
30343;BME280;17145;49.902;8.680;'2023-02-28 04:00:38';101120;;;0;41
30343;BME280;17145;49.902;8.680;'2023-02-28 04:03:10';101120;;;0;41
30343;BME280;17145;49.902;8.680;'2023-02-28 04:05:45';101120;;;0;41
30343;BME280;17145;49.902;8.680;'2023-02-28 04:08:13';101120;;;0;41
30343;BME280;17145;49.902;8.680;'2023-02-28 04:10:42';101120;;;0;41
30343;BME280;17145;49.902;8.680;'2023-02-28 04:13:24';101120;;;0;41
30343;BME280;17145;49.902;8.680;'2023-02-28 04:16:03';101130;;;0;41
30343;BME280;17145;49.902;8.680;'2023-02-28 04:18:41';101130;;;0;41
30343;BME280;17145;49.902;8.680;'2023-02-28 04:21:19';101120;;;0;42
30343;BME280;17145;49.902;8.680;'2023-02-28 04:23:57';101120;;;0;42
30343;BME280;17145;49.902;8.680;'2023-02-28 04:26:27';101120;;;0;42
30343;BME280;17145;49.902;8.680;'2023-02-28 04:29:03';101120;;;0;42
30343;BME280;17145;49.902;8.680;'2023-02-28 04:31:36';101110;;;0;42
30343;BME280;17145;49.902;8.680;'2023-02-28 04:34:10';101110;;;0;42
30343;BME280;17145;49.902;8.680;'2023-02-28 04:36:41';101120;;;0;42
30343;BME280;17145;49.902;8.680;'2023-02-28 04:39:14';101120;;;0;42
30343;BME280;17145;49.902;8.680;'2023-02-28 04:41:46';101120;;;0;42
30343;BME280;17145;49.902;8.680;'2023-02-28 04:44:17';101120;;;0;42
30343;BME280;17145;49.902;8.680;'2023-02-28 04:46:53';101120;;;0;42
30343;BME280;17145;49.902;8.680;'2023-02-28 04:49:32';101120;;;0;43
30343;BME280;17145;49.902;8.680;'2023-02-28 04:52:05';101120;;;0;42
30343;BME280;17145;49.902;8.680;'2023-02-28 04:54:41';101130;;;0;42
30343;BME280;17145;49.902;8.680;'2023-02-28 04:57:17';101130;;;0;42
30343;BME280;17145;49.902;8.680;'2023-02-28 04:59:49';101130;;;0;42
30343;BME280;17145;49.902;8.680;'2023-02-28 05:02:19';101130;;;0;42
30343;BME280;17145;49.902;8.680;'2023-02-28 05:04:47';101130;;;0;43
30343;BME280;17145;49.902;8.680;'2023-02-28 05:07:15';101130;;;0;43
30343;BME280;17145;49.902;8.680;'2023-02-28 05:09:44';101130;;;0;43
30343;BME280;17145;49.902;8.680;'2023-02-28 05:12:11';101130;;;0;43
30343;BME280;17145;49.902;8.680;'2023-02-28 05:14:41';101130;;;0;43
30343;BME280;17145;49.902;8.680;'2023-02-28 05:17:08';101130;;;0;43
30343;BME280;17145;49.902;8.680;'2023-02-28 05:19:36';101130;;;0;43
30343;BME280;17145;49.902;8.680;'2023-02-28 05:22:05';101130;;;0;43
30343;BME280;17145;49.902;8.680;'2023-02-28 05:24:32';101130;;;0;43
30343;BME280;17145;49.902;8.680;'2023-02-28 05:27:01';101130;;;0;43
30343;BME280;17145;49.902;8.680;'2023-02-28 05:29:31';101130;;;0;43
30343;BME280;17145;49.902;8.680;'2023-02-28 05:32:01';101130;;;0;43
30343;BME280;17145;49.902;8.680;'2023-02-28 05:34:30';101130;;;0;43
30343;BME280;17145;49.902;8.680;'2023-02-28 05:36:58';101130;;;0;43
30343;BME280;17145;49.902;8.680;'2023-02-28 05:39:25';101130;;;0;43
30343;BME280;17145;49.902;8.680;'2023-02-28 05:41:53';101130;;;0;43
30343;BME280;17145;49.902;8.680;'2023-02-28 05:44:21';101130;;;0;43
30343;BME280;17145;49.902;8.680;'2023-02-28 05:46:50';101130;;;0;43
30343;BME280;17145;49.902;8.680;'2023-02-28 05:49:20';101130;;;0;43
30343;BME280;17145;49.902;8.680;'2023-02-28 05:51:48';101130;;;0;43
30343;BME280;17145;49.902;8.680;'2023-02-28 05:54:16';101130;;;0;43
30343;BME280;17145;49.902;8.680;'2023-02-28 05:56:43';101130;;;0;43
30343;BME280;17145;49.902;8.680;'2023-02-28 05:59:10';101130;;;0;43
30343;BME280;17145;49.902;8.680;'2023-02-28 06:01:40';101130;;;0;43
30343;BME280;17145;49.902;8.680;'2023-02-28 06:04:08';101140;;;0;43
30343;BME280;17145;49.902;8.680;'2023-02-28 06:06:36';101140;;;0;43
30343;BME280;17145;49.902;8.680;'2023-02-28 06:09:03';101140;;;0;43
30343;BME280;17145;49.902;8.680;'2023-02-28 06:11:33';101140;;;0;43
30343;BME280;17145;49.902;8.680;'2023-02-28 06:14:07';101140;;;0;43
30343;BME280;17145;49.902;8.680;'2023-02-28 06:16:35';101140;;;0;43
30343;BME280;17145;49.902;8.680;'2023-02-28 06:19:04';101140;;;0;43
30343;BME280;17145;49.902;8.680;'2023-02-28 06:21:35';101140;;;0;43
30343;BME280;17145;49.902;8.680;'2023-02-28 06:24:05';101140;;;0;43
30343;BME280;17145;49.902;8.680;'2023-02-28 06:26:35';101140;;;0;43
30343;BME280;17145;49.902;8.680;'2023-02-28 06:29:03';101140;;;0;43
30343;BME280;17145;49.902;8.680;'2023-02-28 06:31:31';101140;;;0;42
30343;BME280;17145;49.902;8.680;'2023-02-28 06:34:00';101140;;;0;43
30343;BME280;17145;49.902;8.680;'2023-02-28 06:36:29';101140;;;0;43
30343;BME280;17145;49.902;8.680;'2023-02-28 06:38:56';101140;;;0;43
30343;BME280;17145;49.902;8.680;'2023-02-28 06:41:25';101140;;;0;42
30343;BME280;17145;49.902;8.680;'2023-02-28 06:43:53';101140;;;0;43
30343;BME280;17145;49.902;8.680;'2023-02-28 06:46:21';101150;;;0;42
30343;BME280;17145;49.902;8.680;'2023-02-28 06:48:52';101150;;;0;42
30343;BME280;17145;49.902;8.680;'2023-02-28 06:51:19';101150;;;0;42
30343;BME280;17145;49.902;8.680;'2023-02-28 06:53:48';101150;;;0;42
30343;BME280;17145;49.902;8.680;'2023-02-28 06:56:17';101160;;;0;42
30343;BME280;17145;49.902;8.680;'2023-02-28 06:58:45';101160;;;0;42
30343;BME280;17145;49.902;8.680;'2023-02-28 07:01:24';101160;;;0;42
30343;BME280;17145;49.902;8.680;'2023-02-28 07:03:53';101160;;;0;42
30343;BME280;17145;49.902;8.680;'2023-02-28 07:06:21';101160;;;0;42
30343;BME280;17145;49.902;8.680;'2023-02-28 07:08:49';101160;;;0;42
30343;BME280;17145;49.902;8.680;'2023-02-28 07:11:18';101160;;;0;42
30343;BME280;17145;49.902;8.680;'2023-02-28 07:13:46';101170;;;0;42
30343;BME280;17145;49.902;8.680;'2023-02-28 07:16:15';101170;;;0;42
30343;BME280;17145;49.902;8.680;'2023-02-28 07:18:42';101170;;;0;42
30343;BME280;17145;49.902;8.680;'2023-02-28 07:21:12';101170;;;0;42
30343;BME280;17145;49.902;8.680;'2023-02-28 07:23:45';101170;;;0;43
30343;BME280;17145;49.902;8.680;'2023-02-28 07:26:12';101170;;;0;43
30343;BME280;17145;49.902;8.680;'2023-02-28 07:28:40';101180;;;0;43
30343;BME280;17145;49.902;8.680;'2023-02-28 07:31:08';101180;;;0;43
30343;BME280;17145;49.902;8.680;'2023-02-28 07:33:38';101180;;;0;42
30343;BME280;17145;49.902;8.680;'2023-02-28 07:36:08';101180;;;0;43
30343;BME280;17145;49.902;8.680;'2023-02-28 07:38:37';101180;;;0;43
30343;BME280;17145;49.902;8.680;'2023-02-28 07:41:05';101180;;;0;42
30343;BME280;17145;49.902;8.680;'2023-02-28 07:43:36';101180;;;0;42
30343;BME280;17145;49.902;8.680;'2023-02-28 07:46:05';101190;;;0;42
30343;BME280;17145;49.902;8.680;'2023-02-28 07:48:33';101190;;;0;42
30343;BME280;17145;49.902;8.680;'2023-02-28 07:51:07';101190;;;0;42
30343;BME280;17145;49.902;8.680;'2023-02-28 07:53:34';101190;;;0;42
30343;BME280;17145;49.902;8.680;'2023-02-28 07:56:04';101200;;;0;42
30343;BME280;17145;49.902;8.680;'2023-02-28 07:58:32';101200;;;0;42
30343;BME280;17145;49.902;8.680;'2023-02-28 08:00:59';101200;;;0;42
30343;BME280;17145;49.902;8.680;'2023-02-28 08:03:27';101200;;;0;42
30343;BME280;17145;49.902;8.680;'2023-02-28 08:05:55';101200;;;0;42
30343;BME280;17145;49.902;8.680;'2023-02-28 08:08:23';101200;;;0;42
30343;BME280;17145;49.902;8.680;'2023-02-28 08:10:53';101200;;;0;42
30343;BME280;17145;49.902;8.680;'2023-02-28 08:13:22';101190;;;0;42
30343;BME280;17145;49.902;8.680;'2023-02-28 08:15:56';101200;;;0;42
30343;BME280;17145;49.902;8.680;'2023-02-28 08:18:24';101200;;;0;42
30343;BME280;17145;49.902;8.680;'2023-02-28 08:20:52';101200;;;0;42
30343;BME280;17145;49.902;8.680;'2023-02-28 08:23:20';101200;;;0;41
30343;BME280;17145;49.902;8.680;'2023-02-28 08:25:51';101200;;;0;41
30343;BME280;17145;49.902;8.680;'2023-02-28 08:28:18';101200;;;0;41
30343;BME280;17145;49.902;8.680;'2023-02-28 08:30:46';101200;;;0;41
30343;BME280;17145;49.902;8.680;'2023-02-28 08:33:14';101200;;;0;41
30343;BME280;17145;49.902;8.680;'2023-02-28 08:35:41';101200;;;0;41
30343;BME280;17145;49.902;8.680;'2023-02-28 08:38:09';101190;;;0;41
30343;BME280;17145;49.902;8.680;'2023-02-28 08:40:37';101200;;;0;41
30343;BME280;17145;49.902;8.680;'2023-02-28 08:43:05';101200;;;0;41
30343;BME280;17145;49.902;8.680;'2023-02-28 08:45:33';101190;;;0;40
30343;BME280;17145;49.902;8.680;'2023-02-28 08:48:01';101200;;;0;40
30343;BME280;17145;49.902;8.680;'2023-02-28 08:50:29';101200;;;0;40
30343;BME280;17145;49.902;8.680;'2023-02-28 08:52:57';101200;;;0;40
30343;BME280;17145;49.902;8.680;'2023-02-28 08:55:25';101200;;;0;40
30343;BME280;17145;49.902;8.680;'2023-02-28 08:57:52';101200;;;0;40
30343;BME280;17145;49.902;8.680;'2023-02-28 09:00:20';101200;;;0;40
30343;BME280;17145;49.902;8.680;'2023-02-28 09:02:48';101200;;;0;40
30343;BME280;17145;49.902;8.680;'2023-02-28 09:05:16';101210;;;0;39
30343;BME280;17145;49.902;8.680;'2023-02-28 09:07:43';101200;;;0;39
30343;BME280;17145;49.902;8.680;'2023-02-28 09:10:12';101210;;;1;39
30343;BME280;17145;49.902;8.680;'2023-02-28 09:12:39';101210;;;1;39
30343;BME280;17145;49.902;8.680;'2023-02-28 09:15:08';101200;;;0;39
30343;BME280;17145;49.902;8.680;'2023-02-28 09:17:36';101200;;;0;39
30343;BME280;17145;49.902;8.680;'2023-02-28 09:20:04';101200;;;1;38
30343;BME280;17145;49.902;8.680;'2023-02-28 09:22:32';101200;;;1;38
30343;BME280;17145;49.902;8.680;'2023-02-28 09:24:59';101200;;;1;39
30343;BME280;17145;49.902;8.680;'2023-02-28 09:27:26';101200;;;1;38
30343;BME280;17145;49.902;8.680;'2023-02-28 09:29:54';101200;;;1;38
30343;BME280;17145;49.902;8.680;'2023-02-28 09:32:21';101200;;;1;38
30343;BME280;17145;49.902;8.680;'2023-02-28 09:34:49';101200;;;1;38
30343;BME280;17145;49.902;8.680;'2023-02-28 09:37:16';101190;;;1;38
30343;BME280;17145;49.902;8.680;'2023-02-28 09:39:43';101190;;;1;38
30343;BME280;17145;49.902;8.680;'2023-02-28 09:42:11';101180;;;1;37
30343;BME280;17145;49.902;8.680;'2023-02-28 09:44:38';101180;;;1;37
30343;BME280;17145;49.902;8.680;'2023-02-28 09:47:06';101180;;;2;37
30343;BME280;17145;49.902;8.680;'2023-02-28 09:49:33';101180;;;2;37
30343;BME280;17145;49.902;8.680;'2023-02-28 09:52:01';101180;;;2;37
30343;BME280;17145;49.902;8.680;'2023-02-28 09:54:28';101180;;;2;36
30343;BME280;17145;49.902;8.680;'2023-02-28 09:56:56';101180;;;2;36
30343;BME280;17145;49.902;8.680;'2023-02-28 09:59:23';101190;;;2;35
30343;BME280;17145;49.902;8.680;'2023-02-28 10:01:50';101190;;;2;35
30343;BME280;17145;49.902;8.680;'2023-02-28 10:04:18';101190;;;2;35
30343;BME280;17145;49.902;8.680;'2023-02-28 10:06:45';101180;;;2;35
30343;BME280;17145;49.902;8.680;'2023-02-28 10:09:13';101190;;;2;35
30343;BME280;17145;49.902;8.680;'2023-02-28 10:11:40';101180;;;2;35
30343;BME280;17145;49.902;8.680;'2023-02-28 10:14:08';101180;;;1;35
30343;BME280;17145;49.902;8.680;'2023-02-28 10:16:35';101180;;;2;35
30343;BME280;17145;49.902;8.680;'2023-02-28 10:19:03';101170;;;2;35
30343;BME280;17145;49.902;8.680;'2023-02-28 10:21:30';101180;;;2;35
30343;BME280;17145;49.902;8.680;'2023-02-28 10:23:59';101180;;;2;35
30343;BME280;17145;49.902;8.680;'2023-02-28 10:26:27';101180;;;2;34
30343;BME280;17145;49.902;8.680;'2023-02-28 10:28:55';101160;;;2;34
30343;BME280;17145;49.902;8.680;'2023-02-28 10:31:27';101180;;;3;34
30343;BME280;17145;49.902;8.680;'2023-02-28 10:33:57';101170;;;3;34
30343;BME280;17145;49.902;8.680;'2023-02-28 10:36:25';101180;;;3;34
30343;BME280;17145;49.902;8.680;'2023-02-28 10:38:53';101180;;;3;34
30343;BME280;17145;49.902;8.680;'2023-02-28 10:41:23';101180;;;3;34
30343;BME280;17145;49.902;8.680;'2023-02-28 10:43:55';101170;;;3;33
30343;BME280;17145;49.902;8.680;'2023-02-28 10:46:32';101170;;;3;33
30343;BME280;17145;49.902;8.680;'2023-02-28 10:49:04';101170;;;3;33
30343;BME280;17145;49.902;8.680;'2023-02-28 10:51:42';101160;;;3;33
30343;BME280;17145;49.902;8.680;'2023-02-28 10:54:13';101170;;;3;33
30343;BME280;17145;49.902;8.680;'2023-02-28 10:56:44';101170;;;3;33
30343;BME280;17145;49.902;8.680;'2023-02-28 10:59:22';101160;;;3;32
30343;BME280;17145;49.902;8.680;'2023-02-28 11:01:57';101170;;;4;32
30343;BME280;17145;49.902;8.680;'2023-02-28 11:04:41';101170;;;4;32
30343;BME280;17145;49.902;8.680;'2023-02-28 11:07:21';101170;;;4;32
30343;BME280;17145;49.902;8.680;'2023-02-28 11:09:54';101170;;;4;32
30343;BME280;17145;49.902;8.680;'2023-02-28 11:12:24';101170;;;4;32
30343;BME280;17145;49.902;8.680;'2023-02-28 11:14:56';101170;;;4;31
30343;BME280;17145;49.902;8.680;'2023-02-28 11:17:31';101160;;;4;31
30343;BME280;17145;49.902;8.680;'2023-02-28 11:20:04';101170;;;4;31
30343;BME280;17145;49.902;8.680;'2023-02-28 11:22:37';101170;;;4;31
30343;BME280;17145;49.902;8.680;'2023-02-28 11:25:17';101170;;;4;30
30343;BME280;17145;49.902;8.680;'2023-02-28 11:27:45';101170;;;4;30
30343;BME280;17145;49.902;8.680;'2023-02-28 11:30:13';101170;;;4;30
30343;BME280;17145;49.902;8.680;'2023-02-28 11:32:47';101170;;;4;30
30343;BME280;17145;49.902;8.680;'2023-02-28 11:35:16';101160;;;4;29
30343;BME280;17145;49.902;8.680;'2023-02-28 11:40:23';101160;;;4;29
30343;BME280;17145;49.902;8.680;'2023-02-28 11:42:56';101170;;;5;30
30343;BME280;17145;49.902;8.680;'2023-02-28 11:45:26';101160;;;5;30
30343;BME280;17145;49.902;8.680;'2023-02-28 11:47:55';101160;;;5;29
30343;BME280;17145;49.902;8.680;'2023-02-28 11:50:30';101170;;;5;28
30343;BME280;17145;49.902;8.680;'2023-02-28 11:53:12';101170;;;5;29
30343;BME280;17145;49.902;8.680;'2023-02-28 11:55:40';101160;;;5;28
30343;BME280;17145;49.902;8.680;'2023-02-28 11:58:20';101160;;;5;28
30343;BME280;17145;49.902;8.680;'2023-02-28 12:00:48';101160;;;5;29
30343;BME280;17145;49.902;8.680;'2023-02-28 12:03:24';101160;;;5;28
30343;BME280;17145;49.902;8.680;'2023-02-28 12:05:52';101150;;;5;28
30343;BME280;17145;49.902;8.680;'2023-02-28 12:08:20';101150;;;6;28
30343;BME280;17145;49.902;8.680;'2023-02-28 12:10:54';101160;;;6;28
30343;BME280;17145;49.902;8.680;'2023-02-28 12:13:27';101160;;;6;27
30343;BME280;17145;49.902;8.680;'2023-02-28 12:15:57';101150;;;6;28
30343;BME280;17145;49.902;8.680;'2023-02-28 12:18:30';101150;;;6;28
30343;BME280;17145;49.902;8.680;'2023-02-28 12:21:01';101150;;;6;27
30343;BME280;17145;49.902;8.680;'2023-02-28 12:23:34';101140;;;6;27
30343;BME280;17145;49.902;8.680;'2023-02-28 12:26:03';101140;;;6;27
30343;BME280;17145;49.902;8.680;'2023-02-28 12:28:33';101140;;;6;27
30343;BME280;17145;49.902;8.680;'2023-02-28 12:31:03';101140;;;6;27
30343;BME280;17145;49.902;8.680;'2023-02-28 12:33:36';101130;;;7;27
30343;BME280;17145;49.902;8.680;'2023-02-28 12:36:11';101140;;;6;27
30343;BME280;17145;49.902;8.680;'2023-02-28 12:38:38';101140;;;7;27
30343;BME280;17145;49.902;8.680;'2023-02-28 12:41:21';101130;;;7;26
30343;BME280;17145;49.902;8.680;'2023-02-28 12:44:09';101130;;;7;27
30343;BME280;17145;49.902;8.680;'2023-02-28 12:46:43';101120;;;7;26
30343;BME280;17145;49.902;8.680;'2023-02-28 12:49:26';101130;;;7;26
30343;BME280;17145;49.902;8.680;'2023-02-28 12:52:00';101130;;;7;26
30343;BME280;17145;49.902;8.680;'2023-02-28 12:54:48';101120;;;8;26
30343;BME280;17145;49.902;8.680;'2023-02-28 12:57:28';101120;;;8;25
30343;BME280;17145;49.902;8.680;'2023-02-28 13:00:02';101120;;;7;25
30343;BME280;17145;49.902;8.680;'2023-02-28 13:02:39';101120;;;8;25
30343;BME280;17145;49.902;8.680;'2023-02-28 13:05:23';101110;;;8;25
30343;BME280;17145;49.902;8.680;'2023-02-28 13:08:03';101110;;;8;25
30343;BME280;17145;49.902;8.680;'2023-02-28 13:10:40';101120;;;8;24
30343;BME280;17145;49.902;8.680;'2023-02-28 13:13:20';101120;;;8;24
30343;BME280;17145;49.902;8.680;'2023-02-28 13:16:08';101120;;;8;24
30343;BME280;17145;49.902;8.680;'2023-02-28 13:18:50';101110;;;9;24
30343;BME280;17145;49.902;8.680;'2023-02-28 13:21:30';101110;;;8;24
30343;BME280;17145;49.902;8.680;'2023-02-28 13:24:10';101120;;;9;24
30343;BME280;17145;49.902;8.680;'2023-02-28 13:26:40';101120;;;8;24
30343;BME280;17145;49.902;8.680;'2023-02-28 13:29:17';101130;;;8;24
30343;BME280;17145;49.902;8.680;'2023-02-28 13:31:50';101120;;;8;25
30343;BME280;17145;49.902;8.680;'2023-02-28 13:34:22';101120;;;8;24
30343;BME280;17145;49.902;8.680;'2023-02-28 13:36:53';101130;;;9;24
30343;BME280;17145;49.902;8.680;'2023-02-28 13:39:26';101120;;;9;24
30343;BME280;17145;49.902;8.680;'2023-02-28 13:41:59';101120;;;8;24
30343;BME280;17145;49.902;8.680;'2023-02-28 13:44:32';101110;;;8;24
30343;BME280;17145;49.902;8.680;'2023-02-28 13:47:04';101110;;;8;24
30343;BME280;17145;49.902;8.680;'2023-02-28 13:49:36';101110;;;8;24
30343;BME280;17145;49.902;8.680;'2023-02-28 13:52:05';101100;;;9;24
30343;BME280;17145;49.902;8.680;'2023-02-28 13:54:41';101100;;;9;24
30343;BME280;17145;49.902;8.680;'2023-02-28 13:57:18';101090;;;9;24
30343;BME280;17145;49.902;8.680;'2023-02-28 14:02:40';101090;;;9;24
30343;BME280;17145;49.902;8.680;'2023-02-28 14:05:24';101080;;;9;23
30343;BME280;17145;49.902;8.680;'2023-02-28 14:08:12';101090;;;9;23
30343;BME280;17145;49.902;8.680;'2023-02-28 14:10:44';101090;;;9;23
30343;BME280;17145;49.902;8.680;'2023-02-28 14:13:18';101090;;;8;23
30343;BME280;17145;49.902;8.680;'2023-02-28 14:15:57';101090;;;9;23
30343;BME280;17145;49.902;8.680;'2023-02-28 14:18:31';101090;;;9;24
30343;BME280;17145;49.902;8.680;'2023-02-28 14:21:00';101090;;;9;23
30343;BME280;17145;49.902;8.680;'2023-02-28 14:23:38';101080;;;8;23
30343;BME280;17145;49.902;8.680;'2023-02-28 14:28:51';101080;;;9;23
30343;BME280;17145;49.902;8.680;'2023-02-28 14:31:19';101090;;;9;23
30343;BME280;17145;49.902;8.680;'2023-02-28 14:34:05';101080;;;9;23
30343;BME280;17145;49.902;8.680;'2023-02-28 14:36:33';101080;;;10;23
30343;BME280;17145;49.902;8.680;'2023-02-28 14:39:03';101080;;;10;22
30343;BME280;17145;49.902;8.680;'2023-02-28 14:41:41';101080;;;10;22
30343;BME280;17145;49.902;8.680;'2023-02-28 14:46:52';101080;;;10;22
30343;BME280;17145;49.902;8.680;'2023-02-28 14:49:25';101080;;;10;22
30343;BME280;17145;49.902;8.680;'2023-02-28 14:51:54';101090;;;10;22
30343;BME280;17145;49.902;8.680;'2023-02-28 14:54:33';101090;;;10;22
30343;BME280;17145;49.902;8.680;'2023-02-28 14:57:15';101080;;;10;21
30343;BME280;17145;49.902;8.680;'2023-02-28 14:59:53';101070;;;10;21
30343;BME280;17145;49.902;8.680;'2023-02-28 15:02:37';101060;;;11;21
30343;BME280;17145;49.902;8.680;'2023-02-28 15:05:11';101060;;;12;20
30343;BME280;17145;49.902;8.680;'2023-02-28 15:07:44';101060;;;13;19
30343;BME280;17145;49.902;8.680;'2023-02-28 15:10:24';101050;;;14;19
30343;BME280;17145;49.902;8.680;'2023-02-28 15:12:55';101050;;;14;19
30343;BME280;17145;49.902;8.680;'2023-02-28 15:15:39';101040;;;14;18
30343;BME280;17145;49.902;8.680;'2023-02-28 15:18:19';101040;;;15;18
30343;BME280;17145;49.902;8.680;'2023-02-28 15:23:28';101040;;;15;17
30343;BME280;17145;49.902;8.680;'2023-02-28 15:26:03';101050;;;15;17
30343;BME280;17145;49.902;8.680;'2023-02-28 15:28:46';101050;;;15;17
30343;BME280;17145;49.902;8.680;'2023-02-28 15:31:18';101040;;;15;17
30343;BME280;17145;49.902;8.680;'2023-02-28 15:34:02';101040;;;15;17
30343;BME280;17145;49.902;8.680;'2023-02-28 15:36:35';101040;;;15;17
30343;BME280;17145;49.902;8.680;'2023-02-28 15:39:07';101040;;;15;17
30343;BME280;17145;49.902;8.680;'2023-02-28 15:41:36';101030;;;14;18
30343;BME280;17145;49.902;8.680;'2023-02-28 15:44:15';101040;;;13;18
30343;BME280;17145;49.902;8.680;'2023-02-28 15:46:44';101040;;;13;18
30343;BME280;17145;49.902;8.680;'2023-02-28 15:49:18';101040;;;13;19
30343;BME280;17145;49.902;8.680;'2023-02-28 15:51:46';101030;;;13;19
30343;BME280;17145;49.902;8.680;'2023-02-28 15:54:19';101040;;;12;19
30343;BME280;17145;49.902;8.680;'2023-02-28 15:56:49';101030;;;12;19
30343;BME280;17145;49.902;8.680;'2023-02-28 16:02:09';101030;;;12;19